QTR224 KJFK-OTHH
Flight info
| Callsign | QTR224 |
|---|---|
| Flight time | N/A |
| Altitude | 33000 |
| Route | GREKI DCT JUDDS DCT MARTN DCT EBONY N505B ALLRY/M084F350 DCT 51N050W 53N040W 55N030W 56N020W DCT PIKIL DCT SOVED/N0491F330 DCT ENULA/N0486F350 DCT DEXEN UY124 DOLOP DCT KEPAD L15 FINMA DCT CHT DCT ITVIP DCT KONAN DCT KOK UL607 REMBA DCT LIRSU DCT ULNOK L607 ABUKA DCT TEDGO L607 UTABA DCT BEMKI DCT ELMEM DCT DIRAB DCT VESAL DCT VAKSU DCT RODON/N0485F370 DCT DIMIS DCT SALUN N705 MMA P751 DASUM Y234 FYM M872 BDB Y214 RAPMA/N0530F290 Y214 ASPUS Y432 LADBO T142 LAEEB |
| Aircraft | A35K/H-SDE2E3GHIJ3J4J5LM1ORWXY/LB1D1 |
Departure
| Time | 2026-05-04 05:22 |
|---|---|
| Airport | John F. Kennedy International Airport (KJFK) |
Arrival
| Time | N/A |
|---|---|
| Airport | Hamad International Airport (OTHH) |
| Time | Latitude | Longitude | Altitude | Speed | Heading |
|---|---|---|---|---|---|
| 2026-05-04 04:53 | 40.64779 | -73.79346 | 24 ft | 0 kts | 150° |
| 2026-05-04 05:09 | 40.64859 | -73.79353 | 27 ft | 0 kts | 242° |
| 2026-05-04 05:11 | 40.64858 | -73.79354 | 27 ft | 0 kts | 242° |
| 2026-05-04 05:12 | 40.64855 | -73.79362 | 28 ft | 2 kts | 242° |
| 2026-05-04 05:12 | 40.64840 | -73.79396 | 29 ft | 7 kts | 241° |
| 2026-05-04 05:12 | 40.64806 | -73.79478 | 26 ft | 13 kts | 241° |
| 2026-05-04 05:12 | 40.64759 | -73.79586 | 27 ft | 12 kts | 237° |
| 2026-05-04 05:13 | 40.64698 | -73.79610 | 25 ft | 8 kts | 161° |
| 2026-05-04 05:13 | 40.64657 | -73.79575 | 28 ft | 7 kts | 147° |
| 2026-05-04 05:13 | 40.64610 | -73.79537 | 30 ft | 9 kts | 152° |
| 2026-05-04 05:13 | 40.64542 | -73.79508 | 30 ft | 13 kts | 169° |
| 2026-05-04 05:14 | 40.64445 | -73.79496 | 28 ft | 15 kts | 176° |
| 2026-05-04 05:14 | 40.64344 | -73.79492 | 29 ft | 14 kts | 182° |
| 2026-05-04 05:14 | 40.64247 | -73.79500 | 29 ft | 14 kts | 184° |
| 2026-05-04 05:14 | 40.64155 | -73.79506 | 31 ft | 13 kts | 180° |
| 2026-05-04 05:15 | 40.64070 | -73.79471 | 31 ft | 13 kts | 144° |
| 2026-05-04 05:15 | 40.64018 | -73.79384 | 30 ft | 12 kts | 121° |
| 2026-05-04 05:15 | 40.63974 | -73.79286 | 32 ft | 12 kts | 121° |
| 2026-05-04 05:15 | 40.63930 | -73.79187 | 32 ft | 13 kts | 121° |
| 2026-05-04 05:16 | 40.63879 | -73.79076 | 30 ft | 15 kts | 121° |
| 2026-05-04 05:16 | 40.63823 | -73.78951 | 26 ft | 17 kts | 121° |
| 2026-05-04 05:16 | 40.63761 | -73.78816 | 27 ft | 18 kts | 121° |
| 2026-05-04 05:16 | 40.63695 | -73.78670 | 27 ft | 19 kts | 121° |
| 2026-05-04 05:17 | 40.63625 | -73.78516 | 27 ft | 20 kts | 121° |
| 2026-05-04 05:17 | 40.63551 | -73.78354 | 27 ft | 20 kts | 121° |
| 2026-05-04 05:17 | 40.63479 | -73.78194 | 27 ft | 20 kts | 120° |
| 2026-05-04 05:17 | 40.63410 | -73.78037 | 26 ft | 20 kts | 118° |
| 2026-05-04 05:18 | 40.63343 | -73.77883 | 27 ft | 19 kts | 121° |
| 2026-05-04 05:18 | 40.63280 | -73.77744 | 29 ft | 17 kts | 121° |
| 2026-05-04 05:18 | 40.63219 | -73.77610 | 29 ft | 17 kts | 121° |
| 2026-05-04 05:18 | 40.63158 | -73.77474 | 28 ft | 18 kts | 121° |
| 2026-05-04 05:19 | 40.63094 | -73.77334 | 27 ft | 18 kts | 121° |
| 2026-05-04 05:19 | 40.63029 | -73.77191 | 27 ft | 18 kts | 121° |
| 2026-05-04 05:19 | 40.62973 | -73.77096 | 26 ft | 10 kts | 155° |
| 2026-05-04 05:19 | 40.62912 | -73.77113 | 27 ft | 9 kts | 208° |
| 2026-05-04 05:20 | 40.62863 | -73.77151 | 28 ft | 8 kts | 211° |
| 2026-05-04 05:20 | 40.62831 | -73.77210 | 28 ft | 8 kts | 257° |
| 2026-05-04 05:20 | 40.62845 | -73.77276 | 28 ft | 8 kts | 294° |
| 2026-05-04 05:20 | 40.62894 | -73.77386 | 29 ft | 27 kts | 300° |
| 2026-05-04 05:21 | 40.63074 | -73.77796 | 32 ft | 76 kts | 301° |
| 2026-05-04 05:21 | 40.63428 | -73.78571 | 28 ft | 120 kts | 301° |
| 2026-05-04 05:21 | 40.63929 | -73.79670 | 27 ft | 158 kts | 300° |
| 2026-05-04 05:21 | 40.64498 | -73.80966 | 390 ft | 161 kts | 296° |
| 2026-05-04 05:22 | 40.64585 | -73.82389 | 734 ft | 164 kts | 248° |
| 2026-05-04 05:22 | 40.63943 | -73.83682 | 1127 ft | 174 kts | 237° |
| 2026-05-04 05:22 | 40.63119 | -73.84964 | 1304 ft | 197 kts | 226° |
| 2026-05-04 05:22 | 40.61818 | -73.85779 | 1491 ft | 217 kts | 198° |
| 2026-05-04 05:23 | 40.60282 | -73.86033 | 1682 ft | 236 kts | 178° |
| 2026-05-04 05:23 | 40.58591 | -73.85706 | 1856 ft | 255 kts | 164° |
| 2026-05-04 05:23 | 40.57038 | -73.84532 | 2202 ft | 263 kts | 133° |
| 2026-05-04 05:23 | 40.56057 | -73.82479 | 2668 ft | 263 kts | 104° |
| 2026-05-04 05:24 | 40.55924 | -73.80116 | 3159 ft | 259 kts | 76° |
| 2026-05-04 05:24 | 40.56613 | -73.78011 | 3580 ft | 257 kts | 48° |
| 2026-05-04 05:24 | 40.57999 | -73.76557 | 3990 ft | 254 kts | 20° |
| 2026-05-04 05:24 | 40.59726 | -73.76145 | 4431 ft | 253 kts | 354° |
| 2026-05-04 05:25 | 40.61458 | -73.76411 | 4901 ft | 255 kts | 348° |
| 2026-05-04 05:25 | 40.63222 | -73.76808 | 5385 ft | 259 kts | 347° |
| 2026-05-04 05:25 | 40.65005 | -73.77216 | 5927 ft | 261 kts | 347° |
| 2026-05-04 05:25 | 40.66809 | -73.77617 | 6473 ft | 265 kts | 349° |
| 2026-05-04 05:26 | 40.68674 | -73.77675 | 6977 ft | 270 kts | 1° |
| 2026-05-04 05:26 | 40.70563 | -73.77402 | 7533 ft | 274 kts | 5° |
| 2026-05-04 05:26 | 40.72441 | -73.76980 | 8068 ft | 277 kts | 7° |
| 2026-05-04 05:26 | 40.74346 | -73.76473 | 8638 ft | 280 kts | 8° |
| 2026-05-04 05:27 | 40.76262 | -73.75934 | 9185 ft | 283 kts | 8° |
| 2026-05-04 05:28 | 40.90521 | -73.72137 | 11276 ft | 358 kts | 8° |
| 2026-05-04 05:29 | 40.93012 | -73.71487 | 11510 ft | 371 kts | 8° |
| 2026-05-04 05:29 | 40.95587 | -73.70812 | 11717 ft | 384 kts | 8° |
| 2026-05-04 05:29 | 40.98247 | -73.70113 | 12043 ft | 393 kts | 8° |
| 2026-05-04 05:29 | 41.00952 | -73.69399 | 12496 ft | 399 kts | 8° |
| 2026-05-04 05:31 | 41.20562 | -73.64218 | 15734 ft | 425 kts | 7° |
| 2026-05-04 05:31 | 41.23474 | -73.63448 | 16186 ft | 428 kts | 7° |
| 2026-05-04 05:32 | 41.26395 | -73.62676 | 16652 ft | 431 kts | 7° |
| 2026-05-04 05:32 | 41.29355 | -73.61892 | 17130 ft | 433 kts | 7° |
| 2026-05-04 05:32 | 41.32322 | -73.61106 | 17594 ft | 437 kts | 6° |
| 2026-05-04 05:33 | 41.38326 | -73.59513 | 18522 ft | 443 kts | 6° |
| 2026-05-04 05:33 | 41.41357 | -73.58707 | 18924 ft | 446 kts | 6° |
| 2026-05-04 05:33 | 41.44417 | -73.57893 | 19317 ft | 451 kts | 7° |
| 2026-05-04 05:33 | 41.47508 | -73.57070 | 19706 ft | 455 kts | 7° |
| 2026-05-04 05:34 | 41.50622 | -73.56240 | 20130 ft | 458 kts | 7° |
| 2026-05-04 05:34 | 41.53764 | -73.55401 | 20560 ft | 461 kts | 7° |
| 2026-05-04 05:34 | 41.56896 | -73.54563 | 20952 ft | 465 kts | 7° |
| 2026-05-04 05:34 | 41.60084 | -73.53710 | 21342 ft | 469 kts | 7° |
| 2026-05-04 05:35 | 41.63299 | -73.52849 | 21741 ft | 473 kts | 7° |
| 2026-05-04 05:35 | 41.66542 | -73.51980 | 22155 ft | 476 kts | 7° |
| 2026-05-04 05:35 | 41.69812 | -73.51102 | 22553 ft | 480 kts | 7° |
| 2026-05-04 05:35 | 41.73097 | -73.50219 | 22947 ft | 483 kts | 7° |
| 2026-05-04 05:36 | 41.76416 | -73.49327 | 23343 ft | 487 kts | 7° |
| 2026-05-04 05:36 | 41.79747 | -73.48431 | 23734 ft | 490 kts | 7° |
| 2026-05-04 05:36 | 41.83052 | -73.47539 | 24101 ft | 492 kts | 7° |
| 2026-05-04 05:36 | 41.86412 | -73.46632 | 24453 ft | 495 kts | 7° |
| 2026-05-04 05:37 | 41.89788 | -73.45720 | 24806 ft | 497 kts | 7° |
| 2026-05-04 05:37 | 41.93201 | -73.44798 | 25203 ft | 498 kts | 6° |
| 2026-05-04 05:37 | 41.96603 | -73.43876 | 25564 ft | 501 kts | 6° |
| 2026-05-04 05:38 | 42.03488 | -73.42011 | 26248 ft | 506 kts | 6° |
| 2026-05-04 05:38 | 42.06954 | -73.41070 | 26625 ft | 507 kts | 6° |
| 2026-05-04 05:38 | 42.10385 | -73.40137 | 26981 ft | 509 kts | 6° |
| 2026-05-04 05:38 | 42.13885 | -73.39185 | 27293 ft | 511 kts | 6° |
| 2026-05-04 05:39 | 42.17381 | -73.38234 | 27615 ft | 514 kts | 6° |
| 2026-05-04 05:39 | 42.24355 | -73.36329 | 28306 ft | 516 kts | 6° |
| 2026-05-04 05:39 | 42.27907 | -73.35359 | 28598 ft | 519 kts | 6° |
| 2026-05-04 05:40 | 42.34991 | -73.33417 | 29477 ft | 516 kts | 6° |
| 2026-05-04 05:40 | 42.38471 | -73.32459 | 29913 ft | 515 kts | 6° |
| 2026-05-04 05:40 | 42.41985 | -73.31493 | 30219 ft | 515 kts | 6° |
| 2026-05-04 05:41 | 42.45497 | -73.30527 | 30481 ft | 515 kts | 6° |
| 2026-05-04 05:41 | 42.49001 | -73.29517 | 30792 ft | 516 kts | 9° |
| 2026-05-04 05:41 | 42.52444 | -73.27999 | 31051 ft | 523 kts | 18° |
| 2026-05-04 05:41 | 42.55708 | -73.25770 | 31272 ft | 530 kts | 28° |
| 2026-05-04 05:42 | 42.58698 | -73.22785 | 31502 ft | 536 kts | 39° |
| 2026-05-04 05:42 | 42.61260 | -73.19111 | 31769 ft | 539 kts | 50° |
| 2026-05-04 05:42 | 42.63452 | -73.14963 | 32033 ft | 540 kts | 56° |
| 2026-05-04 05:42 | 42.65395 | -73.10586 | 32256 ft | 541 kts | 59° |
| 2026-05-04 05:43 | 42.67198 | -73.06155 | 32466 ft | 542 kts | 60° |
| 2026-05-04 05:43 | 42.68980 | -73.01653 | 32708 ft | 541 kts | 60° |
| 2026-05-04 05:43 | 42.70792 | -72.97091 | 32906 ft | 542 kts | 60° |
| 2026-05-04 05:45 | 42.83806 | -72.65519 | 32916 ft | 546 kts | 59° |
| 2026-05-04 05:47 | 42.98618 | -72.29451 | 32928 ft | 544 kts | 59° |
| 2026-05-04 05:47 | 43.02300 | -72.20415 | 32923 ft | 544 kts | 59° |
| 2026-05-04 05:48 | 43.05972 | -72.11373 | 32920 ft | 544 kts | 59° |
| 2026-05-04 05:48 | 43.09634 | -72.02327 | 32915 ft | 544 kts | 59° |
| 2026-05-04 05:49 | 43.13307 | -71.93227 | 32905 ft | 544 kts | 59° |
| 2026-05-04 05:49 | 43.16930 | -71.84220 | 32900 ft | 544 kts | 59° |
| 2026-05-04 05:51 | 43.31471 | -71.47785 | 32894 ft | 543 kts | 59° |
| 2026-05-04 05:52 | 43.35068 | -71.38703 | 32889 ft | 543 kts | 59° |
| 2026-05-04 05:52 | 43.38666 | -71.29586 | 32872 ft | 542 kts | 60° |
| 2026-05-04 05:54 | 43.52753 | -70.93607 | 32882 ft | 529 kts | 59° |
| 2026-05-04 05:55 | 43.56226 | -70.84673 | 32883 ft | 528 kts | 59° |
| 2026-05-04 05:55 | 43.59687 | -70.75735 | 32879 ft | 528 kts | 59° |
| 2026-05-04 05:56 | 43.63139 | -70.66791 | 32874 ft | 528 kts | 59° |
| 2026-05-04 05:56 | 43.66564 | -70.57890 | 32866 ft | 527 kts | 59° |
| 2026-05-04 05:57 | 43.70007 | -70.48918 | 32867 ft | 527 kts | 60° |
| 2026-05-04 05:57 | 43.73440 | -70.39973 | 32869 ft | 527 kts | 60° |
| 2026-05-04 05:58 | 43.76885 | -70.31024 | 32865 ft | 526 kts | 60° |
| 2026-05-04 05:58 | 43.80258 | -70.22050 | 32863 ft | 527 kts | 65° |
| 2026-05-04 05:59 | 43.81327 | -70.17199 | 32864 ft | 528 kts | 80° |
| 2026-05-04 05:59 | 43.81511 | -70.12131 | 32864 ft | 527 kts | 95° |
| 2026-05-04 05:59 | 43.80793 | -70.07167 | 32867 ft | 526 kts | 110° |
| 2026-05-04 05:59 | 43.79226 | -70.02625 | 32868 ft | 522 kts | 126° |
| 2026-05-04 06:00 | 43.76923 | -69.98798 | 32865 ft | 517 kts | 141° |
| 2026-05-04 06:00 | 43.74072 | -69.95941 | 32862 ft | 511 kts | 155° |
| 2026-05-04 06:00 | 43.67497 | -69.92359 | 32857 ft | 508 kts | 165° |
| 2026-05-04 06:01 | 43.60764 | -69.89314 | 32774 ft | 506 kts | 168° |
| 2026-05-04 06:03 | 43.36988 | -69.89178 | 26692 ft | 481 kts | 188° |
| 2026-05-04 06:03 | 43.33631 | -69.89425 | 25643 ft | 473 kts | 188° |
| 2026-05-04 06:05 | 43.11589 | -69.91043 | 21436 ft | 454 kts | 188° |
| 2026-05-04 06:05 | 43.05344 | -69.91499 | 20515 ft | 445 kts | 188° |
| 2026-05-04 06:05 | 43.02296 | -69.91932 | 20058 ft | 434 kts | 198° |
| 2026-05-04 06:06 | 42.99425 | -69.93007 | 19619 ft | 425 kts | 204° |
| 2026-05-04 06:06 | 42.96629 | -69.94249 | 19304 ft | 418 kts | 204° |
| 2026-05-04 06:06 | 42.93866 | -69.95490 | 19060 ft | 419 kts | 204° |
| 2026-05-04 06:06 | 42.91126 | -69.96715 | 18813 ft | 419 kts | 204° |
| 2026-05-04 06:07 | 42.88324 | -69.97959 | 18565 ft | 418 kts | 204° |
| 2026-05-04 06:07 | 42.85593 | -69.99166 | 18323 ft | 416 kts | 204° |
| 2026-05-04 06:07 | 42.82843 | -70.00378 | 18068 ft | 415 kts | 204° |
| 2026-05-04 06:07 | 42.80098 | -70.01586 | 17785 ft | 413 kts | 204° |
| 2026-05-04 06:08 | 42.77366 | -70.02787 | 17532 ft | 412 kts | 204° |
| 2026-05-04 06:08 | 42.74579 | -70.03767 | 17376 ft | 418 kts | 194° |
| 2026-05-04 06:08 | 42.71636 | -70.03734 | 17223 ft | 430 kts | 175° |
| 2026-05-04 06:08 | 42.68780 | -70.02488 | 16724 ft | 438 kts | 156° |
| 2026-05-04 06:09 | 42.66316 | -70.00036 | 16412 ft | 442 kts | 136° |
| 2026-05-04 06:09 | 42.64517 | -69.96644 | 16155 ft | 446 kts | 116° |
| 2026-05-04 06:11 | 42.73658 | -69.78547 | 14391 ft | 371 kts | 355° |
| 2026-05-04 06:11 | 42.76209 | -69.78276 | 14146 ft | 375 kts | 1° |
| 2026-05-04 06:13 | 42.89889 | -69.86642 | 12319 ft | 320 kts | 282° |
| 2026-05-04 06:14 | 42.84306 | -70.00137 | 10996 ft | 320 kts | 205° |
| 2026-05-04 06:14 | 42.82201 | -70.00961 | 10960 ft | 310 kts | 204° |
| 2026-05-04 06:15 | 42.80126 | -70.01757 | 10973 ft | 310 kts | 205° |
| 2026-05-04 06:15 | 42.78062 | -70.02579 | 10959 ft | 310 kts | 205° |
| 2026-05-04 06:15 | 42.75995 | -70.03428 | 10963 ft | 309 kts | 206° |
| 2026-05-04 06:15 | 42.73936 | -70.04299 | 10970 ft | 309 kts | 206° |
| 2026-05-04 06:16 | 42.71903 | -70.05185 | 10964 ft | 309 kts | 207° |
| 2026-05-04 06:16 | 42.69849 | -70.06105 | 10968 ft | 308 kts | 207° |
| 2026-05-04 06:16 | 42.67821 | -70.07038 | 10967 ft | 308 kts | 207° |
| 2026-05-04 06:16 | 42.65812 | -70.07988 | 10968 ft | 308 kts | 208° |
| 2026-05-04 06:17 | 42.63801 | -70.08964 | 10969 ft | 307 kts | 208° |
| 2026-05-04 06:17 | 42.61792 | -70.09964 | 10971 ft | 307 kts | 209° |
| 2026-05-04 06:17 | 42.59809 | -70.10979 | 10968 ft | 306 kts | 210° |
| 2026-05-04 06:17 | 42.57943 | -70.12287 | 10971 ft | 296 kts | 223° |
| 2026-05-04 06:18 | 42.56478 | -70.14123 | 10971 ft | 279 kts | 244° |
| 2026-05-04 06:18 | 42.55788 | -70.16455 | 10970 ft | 262 kts | 268° |
| 2026-05-04 06:18 | 42.55686 | -70.18914 | 10972 ft | 260 kts | 275° |
| 2026-05-04 06:20 | 42.65280 | -70.26792 | 10964 ft | 295 kts | 18° |
| 2026-05-04 06:20 | 42.66941 | -70.25034 | 10962 ft | 315 kts | 44° |
| 2026-05-04 06:21 | 42.64793 | -70.14453 | 10968 ft | 333 kts | 165° |
| 2026-05-04 06:21 | 42.62577 | -70.13988 | 10968 ft | 314 kts | 195° |
| 2026-05-04 06:22 | 42.60618 | -70.14945 | 10973 ft | 290 kts | 225° |
| 2026-05-04 06:22 | 42.59247 | -70.16849 | 10971 ft | 281 kts | 239° |